createdAt,value
2023-01-29T00:00:50.139Z,4.88
2023-01-29T00:01:54.703Z,7.88
2023-01-29T00:02:57.972Z,6.95
2023-01-29T00:04:01.262Z,5.80
2023-01-29T00:05:25.410Z,6.13
2023-01-29T00:06:29.652Z,10.43
2023-01-29T00:07:33.430Z,8.48
2023-01-29T00:08:38.625Z,5.53
2023-01-29T00:09:41.793Z,8.02
2023-01-29T00:10:45.024Z,5.28
2023-01-29T00:11:48.361Z,4.88
2023-01-29T00:12:51.949Z,6.53
2023-01-29T00:13:55.197Z,7.88
2023-01-29T00:14:58.306Z,6.32
2023-01-29T00:16:01.955Z,6.20
2023-01-29T00:17:05.419Z,5.47
2023-01-29T00:18:08.974Z,5.63
2023-01-29T00:19:12.105Z,6.80
2023-01-29T00:20:16.548Z,6.90
2023-01-29T00:21:22.510Z,5.32
2023-01-29T00:22:25.790Z,7.05
2023-01-29T00:23:29.162Z,6.63
2023-01-29T00:24:32.450Z,9.77
2023-01-29T00:25:36.168Z,6.35
2023-01-29T00:26:40.179Z,6.10
2023-01-29T00:27:44.873Z,7.35
2023-01-29T00:28:48.406Z,6.65
2023-01-29T00:30:11.721Z,6.25
2023-01-29T00:31:26.065Z,9.27
2023-01-29T00:32:29.243Z,6.88
2023-01-29T00:33:32.448Z,6.10
2023-01-29T00:34:36.579Z,7.97
2023-01-29T00:35:41.689Z,7.65
2023-01-29T00:36:46.429Z,6.43
2023-01-29T00:37:49.971Z,5.78
2023-01-29T00:39:00.718Z,4.95
2023-01-29T00:40:05.903Z,8.45
2023-01-29T00:41:33.685Z,5.07
2023-01-29T00:42:55.757Z,8.60
2023-01-29T00:44:19.049Z,6.20
2023-01-29T00:45:22.444Z,6.65
2023-01-29T00:46:26.002Z,5.00
2023-01-29T00:47:35.254Z,5.93
2023-01-29T00:48:38.530Z,6.03
2023-01-29T00:49:41.591Z,8.05
2023-01-29T00:50:44.750Z,6.20
2023-01-29T00:52:08.023Z,7.35
2023-01-29T00:53:11.275Z,8.82
2023-01-29T00:54:14.461Z,5.10
2023-01-29T00:55:18.087Z,8.10
2023-01-29T00:56:22.067Z,8.57
2023-01-29T00:57:28.123Z,7.55
2023-01-29T00:58:34.304Z,5.95
2023-01-29T00:59:37.563Z,6.18
2023-01-29T01:00:40.967Z,4.88
2023-01-29T01:02:02.658Z,6.10
2023-01-29T01:03:05.967Z,7.03
2023-01-29T01:04:11.766Z,9.95
2023-01-29T01:05:18.452Z,5.15
2023-01-29T01:06:22.291Z,5.45
2023-01-29T01:07:25.947Z,8.70
2023-01-29T01:08:47.958Z,3.75
2023-01-29T01:10:09.833Z,5.70
2023-01-29T01:11:13.381Z,6.55
2023-01-29T01:12:18.818Z,4.22
2023-01-29T01:13:21.961Z,7.38
2023-01-29T01:14:25.249Z,5.55
2023-01-29T01:15:32.781Z,6.15
2023-01-29T01:16:36.082Z,5.07
2023-01-29T01:17:39.407Z,4.45
2023-01-29T01:18:43.322Z,4.85
2023-01-29T01:19:47.237Z,9.32
2023-01-29T01:20:51.759Z,4.50
2023-01-29T01:21:55.046Z,6.03
2023-01-29T01:22:58.311Z,7.25
2023-01-29T01:24:01.614Z,4.82
2023-01-29T01:25:05.481Z,4.65
2023-01-29T01:26:11.950Z,5.40
2023-01-29T01:27:15.404Z,5.07
2023-01-29T01:28:18.597Z,4.65
2023-01-29T01:29:21.819Z,4.38
2023-01-29T01:30:27.144Z,6.55
2023-01-29T01:31:31.136Z,4.70
2023-01-29T01:32:34.466Z,4.72
2023-01-29T01:33:38.051Z,4.70
2023-01-29T01:34:41.377Z,6.85
2023-01-29T01:35:44.522Z,4.07
2023-01-29T01:36:48.502Z,5.13
2023-01-29T01:37:52.003Z,4.63
2023-01-29T01:38:55.299Z,6.82
2023-01-29T01:39:58.690Z,6.97
2023-01-29T01:41:01.973Z,3.90
2023-01-29T01:42:13.181Z,5.57
2023-01-29T01:43:16.827Z,6.63
2023-01-29T01:44:58.771Z,8.00
2023-01-29T01:46:02.179Z,6.82
2023-01-29T01:47:05.781Z,6.05
2023-01-29T01:48:24.862Z,4.97
2023-01-29T01:49:30.068Z,9.27
2023-01-29T01:50:50.839Z,7.70
2023-01-29T01:51:54.198Z,5.60
2023-01-29T01:53:07.363Z,6.47
2023-01-29T01:54:16.851Z,4.38
2023-01-29T01:55:27.033Z,5.68
2023-01-29T01:56:40.619Z,6.47
2023-01-29T01:57:47.988Z,7.03
2023-01-29T01:58:57.138Z,9.77
2023-01-29T02:00:12.977Z,6.75
2023-01-29T02:01:26.552Z,6.57
2023-01-29T02:02:48.661Z,7.88
2023-01-29T02:04:25.040Z,7.72
2023-01-29T02:05:50.507Z,8.77
2023-01-29T02:07:13.517Z,6.85
2023-01-29T02:08:50.228Z,9.20
2023-01-29T02:10:12.398Z,6.75
2023-01-29T02:11:16.119Z,10.75
2023-01-29T02:12:21.159Z,9.35
2023-01-29T02:13:24.570Z,7.88
2023-01-29T02:14:27.976Z,6.05
2023-01-29T02:15:31.243Z,11.80
2023-01-29T02:16:36.918Z,9.23
2023-01-29T02:17:40.355Z,8.32
2023-01-29T02:18:43.535Z,7.55
2023-01-29T02:20:04.779Z,9.73
2023-01-29T02:21:29.265Z,11.35
2023-01-29T02:23:23.417Z,11.07
2023-01-29T02:25:37.031Z,8.40
2023-01-29T02:27:00.105Z,8.15
2023-01-29T02:28:44.738Z,14.75
2023-01-29T02:29:53.846Z,8.52
2023-01-29T02:31:32.884Z,9.10
2023-01-29T02:32:58.676Z,12.25
2023-01-29T02:34:18.725Z,15.85
2023-01-29T02:35:31.964Z,8.07
2023-01-29T02:36:52.582Z,7.32
2023-01-29T02:39:19.548Z,9.43
2023-01-29T02:40:48.410Z,12.85
2023-01-29T02:42:11.822Z,8.68
2023-01-29T02:43:27.577Z,9.55
2023-01-29T02:44:38.954Z,11.90
2023-01-29T02:46:13.521Z,9.10
2023-01-29T02:47:40.084Z,10.35
2023-01-29T02:49:22.364Z,10.02
2023-01-29T02:50:48.494Z,8.27
2023-01-29T02:52:09.803Z,8.68
2023-01-29T02:53:25.696Z,10.48
2023-01-29T02:54:53.419Z,9.75
2023-01-29T02:56:24.091Z,13.55
2023-01-29T02:57:43.142Z,8.55
2023-01-29T02:58:54.781Z,10.02
2023-01-29T03:00:10.507Z,9.32
2023-01-29T03:01:56.191Z,12.27
2023-01-29T03:03:19.517Z,8.38
2023-01-29T03:04:34.925Z,8.98
2023-01-29T03:06:12.158Z,11.52
2023-01-29T03:07:44.121Z,11.52
2023-01-29T03:09:00.998Z,13.70
2023-01-29T03:10:31.576Z,10.50
2023-01-29T03:11:58.847Z,12.65
2023-01-29T03:13:19.620Z,12.05
2023-01-29T03:15:10.093Z,8.07
2023-01-29T03:16:33.854Z,7.90
2023-01-29T03:17:54.560Z,7.55
2023-01-29T03:20:17.450Z,8.85
2023-01-29T03:21:49.640Z,6.93
2023-01-29T03:23:02.737Z,9.75
2023-01-29T03:24:27.514Z,9.90
2023-01-29T03:25:51.065Z,10.50
2023-01-29T03:27:13.261Z,13.07
2023-01-29T03:28:41.864Z,11.07
2023-01-29T03:30:07.138Z,10.93
2023-01-29T03:31:57.846Z,9.70
2023-01-29T03:33:08.014Z,8.48
2023-01-29T03:34:24.289Z,6.63
2023-01-29T03:35:37.526Z,10.27
2023-01-29T03:36:55.995Z,11.25
2023-01-29T03:38:00.458Z,12.13
2023-01-29T03:39:09.080Z,10.07
2023-01-29T03:40:13.624Z,7.63
2023-01-29T03:41:55.137Z,10.88
2023-01-29T03:43:10.759Z,7.55
2023-01-29T03:44:28.254Z,12.55
2023-01-29T03:45:47.140Z,8.88
2023-01-29T03:47:19.967Z,9.13
2023-01-29T03:48:47.216Z,11.43
2023-01-29T03:50:31.182Z,10.45
2023-01-29T03:52:01.190Z,7.72
2023-01-29T03:53:29.466Z,10.43
2023-01-29T03:55:24.850Z,10.38
2023-01-29T03:57:00.267Z,7.18
2023-01-29T03:58:17.962Z,7.80
2023-01-29T04:00:07.843Z,8.23
2023-01-29T04:01:28.977Z,9.52
2023-01-29T04:02:47.281Z,8.70
2023-01-29T04:03:58.717Z,9.98
2023-01-29T04:05:11.336Z,6.00
2023-01-29T04:06:30.049Z,7.95
2023-01-29T04:07:41.540Z,10.52
2023-01-29T04:08:56.464Z,8.77
2023-01-29T04:10:29.794Z,9.13
2023-01-29T04:11:38.437Z,9.98
2023-01-29T04:12:49.631Z,7.70
2023-01-29T04:13:53.452Z,8.75
2023-01-29T04:15:01.801Z,8.68
2023-01-29T04:16:09.732Z,8.27
2023-01-29T04:17:40.048Z,5.38
2023-01-29T04:18:54.354Z,11.45
2023-01-29T04:20:12.032Z,6.60
2023-01-29T04:21:17.549Z,8.70
2023-01-29T04:22:28.129Z,8.00
2023-01-29T04:23:31.185Z,8.93
2023-01-29T04:24:35.260Z,8.18
2023-01-29T04:25:47.889Z,8.68
2023-01-29T04:27:48.298Z,8.77
2023-01-29T04:29:21.612Z,7.03
2023-01-29T04:31:11.366Z,10.10
2023-01-29T04:32:53.150Z,8.77
2023-01-29T04:34:02.237Z,9.18
2023-01-29T04:35:25.549Z,10.30
2023-01-29T04:36:58.052Z,8.40
2023-01-29T04:38:20.296Z,9.43
2023-01-29T04:39:54.109Z,7.60
2023-01-29T04:41:02.174Z,9.50
2023-01-29T04:42:33.833Z,12.00
2023-01-29T04:43:51.773Z,8.48
2023-01-29T04:45:25.605Z,16.23
2023-01-29T04:46:41.662Z,8.20
2023-01-29T04:48:07.483Z,8.32
2023-01-29T04:49:43.321Z,9.35
2023-01-29T04:51:09.040Z,6.90
2023-01-29T04:52:45.938Z,9.75
2023-01-29T04:54:14.279Z,7.60
2023-01-29T04:55:39.624Z,9.07
2023-01-29T04:56:56.895Z,12.55
2023-01-29T04:58:46.826Z,8.63
2023-01-29T05:00:16.706Z,10.10
2023-01-29T05:01:25.842Z,10.63
2023-01-29T05:02:32.144Z,10.57
2023-01-29T05:03:37.950Z,10.45
2023-01-29T05:04:44.648Z,9.90
2023-01-29T05:05:50.240Z,15.43
2023-01-29T05:06:53.698Z,16.10
2023-01-29T05:07:59.214Z,10.05
2023-01-29T05:09:03.561Z,9.25
2023-01-29T05:10:10.389Z,10.30
2023-01-29T05:11:14.389Z,11.23
2023-01-29T05:12:18.843Z,15.55
2023-01-29T05:13:23.755Z,9.10
2023-01-29T05:14:30.555Z,9.30
2023-01-29T05:15:42.175Z,9.57
2023-01-29T05:16:51.689Z,11.55
2023-01-29T05:18:03.202Z,9.55
2023-01-29T05:19:07.415Z,9.80
2023-01-29T05:20:12.603Z,9.23
2023-01-29T05:21:15.820Z,10.95
2023-01-29T05:22:22.768Z,10.65
2023-01-29T05:23:25.875Z,12.27
2023-01-29T05:24:29.174Z,13.02
2023-01-29T05:25:33.828Z,11.43
2023-01-29T05:26:55.874Z,12.55
2023-01-29T05:28:11.864Z,8.82
2023-01-29T05:29:14.982Z,11.13
2023-01-29T05:30:18.523Z,10.57
2023-01-29T05:31:21.968Z,15.40
2023-01-29T05:32:25.273Z,11.18
2023-01-29T05:33:31.348Z,8.98
2023-01-29T05:34:34.547Z,10.45
2023-01-29T05:35:37.792Z,8.07
2023-01-29T05:36:40.902Z,11.63
2023-01-29T05:37:44.678Z,10.75
2023-01-29T05:38:47.782Z,12.48
2023-01-29T05:39:50.895Z,9.52
2023-01-29T05:40:54.478Z,14.05
2023-01-29T05:41:57.904Z,12.82
2023-01-29T05:43:01.569Z,11.02
2023-01-29T05:44:05.031Z,12.75
2023-01-29T05:45:09.305Z,11.25
2023-01-29T05:46:12.451Z,13.30
2023-01-29T05:47:20.198Z,11.63
2023-01-29T05:48:24.270Z,11.00
2023-01-29T05:49:27.367Z,11.55
2023-01-29T05:50:30.446Z,10.00
2023-01-29T05:51:34.293Z,11.77
2023-01-29T05:52:37.477Z,10.63
2023-01-29T05:53:40.599Z,8.82
2023-01-29T05:54:43.901Z,10.88
2023-01-29T05:55:50.062Z,9.65
2023-01-29T05:56:53.124Z,10.88
2023-01-29T05:57:56.448Z,10.43
2023-01-29T05:58:59.591Z,11.27
2023-01-29T06:00:02.680Z,11.85
2023-01-29T06:01:22.248Z,12.50
2023-01-29T06:02:25.379Z,9.50
2023-01-29T06:03:29.762Z,10.90
2023-01-29T06:04:32.856Z,10.20
2023-01-29T06:05:39.269Z,12.32
2023-01-29T06:06:45.008Z,11.68
2023-01-29T06:07:48.268Z,11.20
2023-01-29T06:08:51.456Z,12.77
2023-01-29T06:09:54.783Z,10.80
2023-01-29T06:10:57.915Z,13.80
2023-01-29T06:12:01.046Z,12.23
2023-01-29T06:13:04.587Z,10.90
2023-01-29T06:14:07.687Z,12.90
2023-01-29T06:15:12.599Z,15.75
2023-01-29T06:16:15.997Z,12.27
2023-01-29T06:17:19.144Z,13.77
2023-01-29T06:18:22.256Z,11.90
2023-01-29T06:19:25.333Z,11.93
2023-01-29T06:20:28.600Z,11.68
2023-01-29T06:21:31.774Z,11.70
2023-01-29T06:22:34.910Z,14.70
2023-01-29T06:23:38.678Z,10.15
2023-01-29T06:24:41.839Z,11.60
2023-01-29T06:25:45.156Z,13.15
2023-01-29T06:26:48.420Z,14.35
2023-01-29T06:27:52.089Z,12.02
2023-01-29T06:28:55.264Z,12.25
2023-01-29T06:29:58.447Z,11.90
2023-01-29T06:32:29.331Z,14.45
2023-01-29T06:33:32.548Z,13.25
2023-01-29T06:34:36.121Z,11.57
2023-01-29T06:35:39.206Z,14.15
2023-01-29T06:36:43.242Z,10.18
2023-01-29T06:37:46.965Z,13.68
2023-01-29T06:38:50.179Z,14.82
2023-01-29T06:39:53.338Z,10.85
2023-01-29T06:40:56.624Z,12.30
2023-01-29T06:41:59.781Z,14.38
2023-01-29T06:43:03.040Z,14.02
2023-01-29T06:44:06.526Z,13.30
2023-01-29T06:45:10.693Z,12.25
2023-01-29T06:46:14.331Z,13.60
2023-01-29T06:47:17.426Z,15.70
2023-01-29T06:48:20.649Z,13.60
2023-01-29T06:49:23.839Z,13.68
2023-01-29T06:50:26.969Z,11.35
2023-01-29T06:51:30.128Z,13.35
2023-01-29T06:52:33.282Z,12.55
2023-01-29T06:53:38.704Z,16.92
2023-01-29T06:54:41.926Z,12.88
2023-01-29T06:55:52.971Z,15.68
2023-01-29T06:56:56.435Z,10.52
2023-01-29T06:57:59.527Z,11.68
2023-01-29T06:59:03.029Z,11.70
2023-01-29T07:00:07.075Z,14.30
2023-01-29T07:01:17.561Z,10.70
2023-01-29T07:02:25.403Z,13.00
2023-01-29T07:03:28.533Z,12.82
2023-01-29T07:04:31.678Z,14.75
2023-01-29T07:05:34.768Z,13.43
2023-01-29T07:06:38.092Z,12.60
2023-01-29T07:07:41.237Z,15.48
2023-01-29T07:08:44.979Z,11.95
2023-01-29T07:09:48.046Z,15.50
2023-01-29T07:10:51.217Z,12.82
2023-01-29T07:11:54.383Z,14.48
2023-01-29T07:12:59.932Z,13.57
2023-01-29T07:14:03.039Z,10.25
2023-01-29T07:15:07.072Z,15.75
2023-01-29T07:16:11.212Z,13.30
2023-01-29T07:17:14.297Z,13.65
2023-01-29T07:18:17.430Z,11.50
2023-01-29T07:19:20.719Z,14.63
2023-01-29T07:20:26.564Z,17.38
2023-01-29T07:21:29.822Z,11.70
2023-01-29T07:22:33.283Z,16.58
2023-01-29T07:23:36.552Z,15.88
2023-01-29T07:24:39.866Z,12.38
2023-01-29T07:25:43.335Z,15.88
2023-01-29T07:26:46.691Z,19.42
2023-01-29T07:27:49.848Z,13.55
2023-01-29T07:28:53.001Z,12.23
2023-01-29T07:29:56.075Z,13.25
2023-01-29T07:30:59.888Z,11.98
2023-01-29T07:32:03.059Z,18.50
2023-01-29T07:33:09.457Z,14.00
2023-01-29T07:34:12.608Z,13.43
2023-01-29T07:35:15.882Z,14.25
2023-01-29T07:36:19.002Z,15.10
2023-01-29T07:37:22.138Z,12.25
2023-01-29T07:38:25.508Z,16.80
2023-01-29T07:39:28.819Z,12.77
2023-01-29T07:40:32.162Z,17.55
2023-01-29T07:41:35.337Z,14.38
2023-01-29T07:42:42.965Z,11.75
2023-01-29T07:43:46.187Z,16.75
2023-01-29T07:44:49.718Z,18.88
2023-01-29T07:45:53.245Z,16.77
2023-01-29T07:46:56.461Z,13.88
2023-01-29T07:47:59.689Z,13.68
2023-01-29T07:49:02.880Z,12.10
2023-01-29T07:50:06.739Z,12.10
2023-01-29T07:51:09.801Z,12.48
2023-01-29T07:52:13.085Z,12.75
2023-01-29T07:53:16.813Z,16.70
2023-01-29T07:54:19.986Z,15.45
2023-01-29T07:55:23.809Z,17.10
2023-01-29T07:56:27.144Z,18.05
2023-01-29T07:57:30.755Z,14.80
2023-01-29T07:58:35.760Z,14.63
2023-01-29T07:59:39.809Z,15.25
2023-01-29T08:00:43.773Z,14.43
2023-01-29T08:01:46.942Z,13.93
2023-01-29T08:02:50.504Z,16.08
2023-01-29T08:03:53.651Z,19.65
2023-01-29T08:04:56.817Z,16.13
2023-01-29T08:05:59.986Z,20.67
2023-01-29T08:07:04.843Z,14.82
2023-01-29T08:08:08.159Z,14.88
2023-01-29T08:09:11.347Z,17.02
2023-01-29T08:10:14.441Z,18.77
2023-01-29T08:11:17.469Z,14.55
2023-01-29T08:12:20.650Z,19.30
2023-01-29T08:13:23.825Z,19.00
2023-01-29T08:14:27.072Z,13.70
2023-01-29T08:15:30.705Z,15.02
2023-01-29T08:16:33.892Z,14.75
2023-01-29T08:17:52.557Z,17.52
2023-01-29T08:19:02.908Z,14.48
2023-01-29T08:20:09.811Z,17.52
2023-01-29T08:21:14.046Z,21.63
2023-01-29T08:22:17.414Z,15.68
2023-01-29T08:23:20.823Z,14.52
2023-01-29T08:24:31.138Z,13.23
2023-01-29T08:25:44.910Z,17.50
2023-01-29T08:26:48.101Z,15.57
2023-01-29T08:27:51.245Z,16.42
2023-01-29T08:28:54.355Z,18.27
2023-01-29T08:29:58.122Z,15.70
2023-01-29T08:31:02.102Z,20.63
2023-01-29T08:32:05.540Z,18.50
2023-01-29T08:33:08.714Z,16.38
2023-01-29T08:34:11.836Z,19.90
2023-01-29T08:35:15.055Z,23.98
2023-01-29T08:36:18.201Z,15.73
2023-01-29T08:37:21.656Z,14.80
2023-01-29T08:38:24.881Z,22.38
2023-01-29T08:39:27.961Z,15.40
2023-01-29T08:40:34.320Z,19.63
2023-01-29T08:41:37.597Z,16.55
2023-01-29T08:42:41.626Z,15.43
2023-01-29T08:43:45.145Z,18.15
2023-01-29T08:44:48.268Z,16.73
2023-01-29T08:45:51.667Z,14.10
2023-01-29T08:46:54.908Z,13.10
2023-01-29T08:47:58.080Z,15.82
2023-01-29T08:49:01.307Z,16.90
2023-01-29T08:50:06.521Z,14.20
2023-01-29T08:51:09.938Z,13.57
2023-01-29T08:52:13.330Z,14.25
2023-01-29T08:53:16.594Z,15.48
2023-01-29T08:54:19.836Z,17.88
2023-01-29T08:55:23.137Z,15.93
2023-01-29T08:56:26.350Z,15.40
2023-01-29T08:57:29.400Z,17.55
2023-01-29T08:58:32.619Z,14.95
2023-01-29T08:59:35.811Z,16.70
2023-01-29T09:00:39.474Z,14.70
2023-01-29T09:01:42.680Z,13.98
2023-01-29T09:02:45.951Z,17.25
2023-01-29T09:03:50.194Z,16.38
2023-01-29T09:04:53.462Z,17.42
2023-01-29T09:05:56.712Z,16.23
2023-01-29T09:06:59.814Z,16.27
2023-01-29T09:08:03.139Z,20.20
2023-01-29T09:09:06.248Z,15.95
2023-01-29T09:10:12.031Z,18.65
2023-01-29T09:11:15.289Z,19.48
2023-01-29T09:12:18.547Z,12.75
2023-01-29T09:13:21.624Z,19.55
2023-01-29T09:14:24.765Z,16.30
2023-01-29T09:15:28.013Z,17.13
2023-01-29T09:16:31.145Z,16.58
2023-01-29T09:17:34.484Z,15.73
2023-01-29T09:18:37.719Z,18.10
2023-01-29T09:19:40.832Z,15.45
2023-01-29T09:20:44.290Z,15.15
2023-01-29T09:21:47.513Z,15.20
2023-01-29T09:22:53.732Z,13.43
2023-01-29T09:23:56.921Z,18.17
2023-01-29T09:25:00.122Z,13.57
2023-01-29T09:26:03.631Z,15.20
2023-01-29T09:27:06.738Z,15.50
2023-01-29T09:28:09.846Z,18.02
2023-01-29T09:29:13.163Z,19.75
2023-01-29T09:30:17.390Z,23.00
2023-01-29T09:31:20.699Z,19.75
2023-01-29T09:32:52.049Z,14.98
2023-01-29T09:33:46.954Z,15.18
2023-01-29T09:34:50.057Z,16.33
2023-01-29T09:35:53.356Z,21.25
2023-01-29T09:36:56.432Z,26.65
2023-01-29T09:38:00.050Z,22.45
2023-01-29T09:39:03.351Z,18.45
2023-01-29T09:40:08.123Z,18.40
2023-01-29T09:41:24.418Z,21.85
2023-01-29T09:42:41.987Z,20.25
2023-01-29T09:43:53.610Z,20.52
2023-01-29T09:45:17.462Z,13.98
2023-01-29T09:46:42.165Z,19.13
2023-01-29T09:47:45.439Z,19.35
2023-01-29T09:48:56.767Z,16.67
2023-01-29T09:50:42.743Z,19.73
2023-01-29T09:51:59.392Z,15.98
2023-01-29T09:53:18.165Z,18.98
2023-01-29T09:54:40.907Z,19.13
2023-01-29T09:56:05.114Z,14.90
2023-01-29T09:57:15.750Z,17.40
2023-01-29T09:58:31.329Z,17.02
2023-01-29T09:59:34.431Z,22.65
2023-01-29T10:00:55.257Z,18.80
2023-01-29T10:02:06.425Z,13.45
2023-01-29T10:03:50.624Z,19.33
2023-01-29T10:05:25.406Z,20.55
2023-01-29T10:07:02.623Z,19.45
2023-01-29T10:08:17.910Z,20.33
2023-01-29T10:10:07.665Z,14.77
2023-01-29T10:11:44.348Z,17.92
2023-01-29T10:12:59.628Z,19.27
2023-01-29T10:14:37.817Z,16.90
2023-01-29T10:15:55.594Z,17.08
2023-01-29T10:17:25.976Z,17.75
2023-01-29T10:19:18.174Z,14.65
2023-01-29T10:21:04.714Z,21.92
2023-01-29T10:22:48.573Z,15.90
2023-01-29T10:23:57.476Z,14.52
2023-01-29T10:25:18.213Z,17.35
2023-01-29T10:26:26.526Z,14.35
2023-01-29T10:27:38.535Z,18.35
2023-01-29T10:28:50.842Z,15.07
2023-01-29T10:29:56.739Z,15.55
2023-01-29T10:31:14.223Z,13.25
2023-01-29T10:32:21.389Z,14.65
2023-01-29T10:34:01.945Z,15.30
2023-01-29T10:35:19.435Z,16.58
2023-01-29T10:36:37.206Z,17.85
2023-01-29T10:37:42.446Z,15.52
2023-01-29T10:38:51.437Z,11.52
2023-01-29T10:39:54.616Z,17.08
2023-01-29T10:41:38.852Z,13.05
2023-01-29T10:43:04.132Z,15.25
2023-01-29T10:44:43.844Z,14.35
2023-01-29T10:46:20.017Z,13.38
2023-01-29T10:47:57.282Z,14.00
2023-01-29T10:49:22.491Z,13.80
2023-01-29T10:50:57.829Z,12.57
2023-01-29T10:52:22.347Z,13.13
2023-01-29T10:53:55.669Z,15.77
2023-01-29T10:55:39.931Z,16.00
2023-01-29T10:57:10.476Z,15.00
2023-01-29T10:58:55.237Z,9.30
2023-01-29T11:00:13.074Z,13.85
2023-01-29T11:01:16.549Z,14.00
2023-01-29T11:02:22.670Z,19.05
2023-01-29T11:03:29.992Z,21.95
2023-01-29T11:04:34.603Z,15.27
2023-01-29T11:06:02.299Z,12.32
2023-01-29T11:07:05.534Z,13.80
2023-01-29T11:08:16.433Z,15.40
2023-01-29T11:12:16.811Z,10.38
2023-01-29T11:13:20.050Z,15.45
2023-01-29T11:14:53.359Z,18.10
2023-01-29T11:15:56.447Z,21.85
2023-01-29T11:16:59.719Z,18.85
2023-01-29T11:18:07.235Z,17.88
2023-01-29T11:19:10.977Z,15.68
2023-01-29T11:20:34.563Z,15.32
2023-01-29T11:22:00.023Z,15.25
2023-01-29T11:23:03.460Z,15.88
2023-01-29T11:24:18.787Z,12.93
2023-01-29T11:25:22.917Z,14.10
2023-01-29T11:26:26.070Z,12.75
2023-01-29T11:27:35.701Z,11.70
2023-01-29T11:28:44.029Z,14.65
2023-01-29T11:29:48.299Z,16.05
2023-01-29T11:30:52.395Z,16.35
2023-01-29T11:31:57.524Z,14.32
2023-01-29T11:33:12.594Z,12.07
2023-01-29T11:34:33.566Z,11.85
2023-01-29T11:36:40.524Z,15.00
2023-01-29T11:37:46.399Z,11.88
2023-01-29T11:39:27.540Z,12.23
2023-01-29T11:40:40.895Z,12.95
2023-01-29T11:41:50.126Z,11.68
2023-01-29T11:42:53.833Z,12.90
2023-01-29T11:43:59.692Z,15.93
2023-01-29T11:45:02.792Z,16.30
2023-01-29T11:46:13.470Z,17.30
2023-01-29T11:47:16.500Z,17.60
2023-01-29T11:48:29.550Z,16.17
2023-01-29T11:49:35.440Z,14.63
2023-01-29T11:50:38.682Z,16.58
2023-01-29T11:51:42.060Z,13.80
2023-01-29T11:52:45.348Z,11.60
2023-01-29T11:53:59.579Z,14.32
2023-01-29T11:55:18.193Z,14.00
2023-01-29T11:56:26.562Z,12.35
2023-01-29T11:57:42.298Z,16.67
2023-01-29T11:58:47.116Z,14.70
2023-01-29T11:59:52.847Z,15.30
2023-01-29T12:00:58.406Z,16.73
2023-01-29T12:02:38.813Z,16.65
2023-01-29T12:03:52.001Z,17.77
2023-01-29T12:04:57.687Z,17.52
2023-01-29T12:06:08.984Z,16.77
2023-01-29T12:07:16.128Z,17.40
2023-01-29T12:08:21.568Z,13.40
2023-01-29T12:09:28.415Z,15.10
2023-01-29T12:10:41.477Z,15.85
2023-01-29T12:11:45.032Z,15.25
2023-01-29T12:12:48.879Z,16.90
2023-01-29T12:14:01.166Z,19.17
2023-01-29T12:15:26.913Z,15.38
2023-01-29T12:16:45.539Z,15.38
2023-01-29T12:18:52.525Z,15.05
2023-01-29T12:20:22.828Z,13.73
2023-01-29T12:21:53.885Z,16.77
2023-01-29T12:23:11.822Z,16.50
2023-01-29T12:24:36.041Z,17.10
2023-01-29T12:26:09.131Z,11.88
2023-01-29T12:27:22.651Z,15.00
2023-01-29T12:29:13.606Z,14.80
2023-01-29T12:30:48.239Z,12.32
2023-01-29T12:32:44.376Z,15.77
2023-01-29T12:33:57.727Z,16.10
2023-01-29T12:35:07.385Z,15.00
2023-01-29T12:36:38.698Z,17.65
2023-01-29T12:37:59.008Z,16.55
2023-01-29T12:39:02.464Z,20.40
2023-01-29T12:40:19.303Z,17.98
2023-01-29T12:41:29.036Z,18.08
2023-01-29T12:42:32.727Z,15.40
2023-01-29T12:43:50.914Z,15.32
2023-01-29T12:45:03.367Z,13.02
2023-01-29T12:46:23.994Z,15.70
2023-01-29T12:47:39.827Z,18.92
2023-01-29T12:48:46.599Z,18.33
2023-01-29T12:49:57.866Z,17.10
2023-01-29T12:51:20.413Z,20.92
2023-01-29T12:52:35.292Z,23.00
2023-01-29T12:53:40.608Z,17.20
2023-01-29T12:55:20.187Z,16.33
2023-01-29T12:56:47.273Z,15.90
2023-01-29T12:57:57.736Z,19.95
2023-01-29T12:59:05.809Z,16.98
2023-01-29T13:00:22.627Z,20.85
2023-01-29T13:01:40.264Z,16.67
2023-01-29T13:03:17.305Z,21.65
2023-01-29T13:04:48.055Z,16.08
2023-01-29T13:06:02.854Z,20.77
2023-01-29T13:07:23.751Z,23.50
2023-01-29T13:08:58.208Z,19.52
2023-01-29T13:10:28.423Z,19.42
2023-01-29T13:12:04.579Z,12.73
2023-01-29T13:13:38.688Z,24.23
2023-01-29T13:15:21.896Z,18.95
2023-01-29T13:16:37.189Z,23.27
2023-01-29T13:17:45.350Z,16.35
2023-01-29T13:18:55.025Z,16.58
2023-01-29T13:20:05.266Z,22.23
2023-01-29T13:21:18.818Z,17.13
2023-01-29T13:22:38.540Z,17.65
2023-01-29T13:23:48.627Z,18.80
2023-01-29T13:25:04.211Z,20.42
2023-01-29T13:26:09.115Z,20.95
2023-01-29T13:27:32.956Z,17.95
2023-01-29T13:28:37.058Z,18.38
2023-01-29T13:29:40.182Z,20.98
2023-01-29T13:30:43.628Z,18.90
2023-01-29T13:31:52.661Z,19.45
2023-01-29T13:33:09.497Z,18.48
2023-01-29T13:34:24.957Z,20.92
2023-01-29T13:35:28.934Z,17.23
2023-01-29T13:36:33.220Z,18.65
2023-01-29T13:37:57.216Z,21.73
2023-01-29T13:39:09.023Z,24.50
2023-01-29T13:40:27.056Z,23.55
2023-01-29T13:41:41.693Z,21.50
2023-01-29T13:42:48.646Z,24.63
2023-01-29T13:43:51.926Z,23.73
2023-01-29T13:45:00.700Z,19.48
2023-01-29T13:46:18.438Z,17.40
2023-01-29T13:47:39.490Z,23.60
2023-01-29T13:48:49.110Z,21.88
2023-01-29T13:50:37.488Z,20.35
2023-01-29T13:51:40.791Z,21.60
2023-01-29T13:53:01.811Z,21.27
2023-01-29T13:55:22.351Z,17.70
2023-01-29T13:56:35.305Z,20.85
2023-01-29T13:57:54.731Z,28.42
2023-01-29T13:59:00.536Z,23.90
2023-01-29T14:00:06.269Z,18.95
2023-01-29T14:01:09.533Z,21.15
2023-01-29T14:02:27.190Z,24.40
2023-01-29T14:03:45.071Z,15.90
2023-01-29T14:05:31.312Z,22.60
2023-01-29T14:06:44.266Z,20.08
2023-01-29T14:07:47.429Z,20.27
2023-01-29T14:08:50.549Z,22.45
2023-01-29T14:10:15.290Z,19.00
2023-01-29T14:11:21.921Z,26.38
2023-01-29T14:12:24.957Z,22.77
2023-01-29T14:13:35.903Z,24.50
2023-01-29T14:15:15.812Z,21.73
2023-01-29T14:16:20.043Z,27.65
2023-01-29T14:17:26.583Z,23.02
2023-01-29T14:18:33.837Z,26.80
2023-01-29T14:19:37.134Z,22.42
2023-01-29T14:20:47.459Z,22.83
2023-01-29T14:21:51.387Z,23.95
2023-01-29T14:22:59.810Z,20.50
2023-01-29T14:24:24.966Z,32.22
2023-01-29T14:25:35.469Z,24.00
2023-01-29T14:26:38.459Z,26.58
2023-01-29T14:27:48.613Z,25.00
2023-01-29T14:30:41.346Z,26.35
2023-01-29T14:32:22.339Z,24.20
2023-01-29T14:32:42.562Z,23.33
2023-01-29T14:33:41.822Z,22.88
2023-01-29T14:34:50.776Z,25.25
2023-01-29T14:35:56.936Z,22.75
2023-01-29T14:37:24.352Z,22.42
2023-01-29T14:38:29.839Z,23.90
2023-01-29T14:39:45.389Z,25.77
2023-01-29T14:40:48.933Z,24.08
2023-01-29T14:41:53.208Z,22.13
2023-01-29T14:43:08.081Z,22.80
2023-01-29T14:44:44.915Z,28.63
2023-01-29T14:45:51.678Z,21.98
2023-01-29T14:46:54.777Z,30.92
2023-01-29T14:48:10.032Z,27.25
2023-01-29T14:49:35.687Z,32.38
2023-01-29T14:50:47.938Z,29.50
2023-01-29T14:51:51.187Z,25.50
2023-01-29T14:53:04.933Z,22.92
2023-01-29T14:54:33.730Z,23.13
2023-01-29T14:56:11.055Z,28.83
2023-01-29T14:57:17.620Z,26.45
2023-01-29T14:58:26.472Z,27.42
2023-01-29T14:59:34.940Z,26.10
2023-01-29T15:00:43.497Z,32.25
2023-01-29T15:01:56.200Z,25.55
2023-01-29T15:03:02.195Z,29.42
2023-01-29T15:04:12.089Z,24.25
2023-01-29T15:05:23.974Z,20.60
2023-01-29T15:06:53.034Z,25.40
2023-01-29T15:08:37.602Z,28.60
2023-01-29T15:10:18.858Z,25.40
2023-01-29T15:12:03.563Z,23.27
2023-01-29T15:13:58.465Z,24.67
2023-01-29T15:15:22.243Z,24.15
2023-01-29T15:16:44.454Z,23.20
2023-01-29T15:18:09.295Z,27.92
2023-01-29T15:19:32.336Z,26.10
2023-01-29T15:20:39.050Z,21.92
2023-01-29T15:22:09.903Z,21.80
2023-01-29T15:23:28.766Z,26.17
2023-01-29T15:24:32.057Z,28.40
2023-01-29T15:25:47.076Z,19.77
2023-01-29T15:26:50.274Z,23.15
2023-01-29T15:27:55.266Z,24.73
2023-01-29T15:29:04.462Z,20.67
2023-01-29T15:30:15.217Z,23.63
2023-01-29T15:31:18.908Z,22.42
2023-01-29T15:32:42.652Z,21.83
2023-01-29T15:33:49.235Z,21.52
2023-01-29T15:34:52.851Z,25.25
2023-01-29T15:36:08.786Z,19.95
2023-01-29T15:37:33.804Z,23.25
2023-01-29T15:38:37.055Z,21.83
2023-01-29T15:39:44.174Z,18.90
2023-01-29T15:41:01.849Z,24.60
2023-01-29T15:42:14.413Z,23.63
2023-01-29T15:43:23.898Z,24.65
2023-01-29T15:44:27.510Z,21.33
2023-01-29T15:45:33.488Z,23.13
2023-01-29T15:46:40.692Z,22.58
2023-01-29T15:47:44.378Z,23.20
2023-01-29T15:48:49.574Z,19.83